Time;durP1;ratioP1;P1;durP2;ratioP2;P2;SDS_P1;SDS_P2;PMS_P1;PMS_P2;Temp;Humidity;BMP_temperature;BMP_pressure;BME280_temperature;BME280_humidity;BME280_pressure;Samples;Min_cycle;Max_cycle;Signal;HPM_P1;HPM_P2
2021/06/07 00:00:21;;;;;;;1.52;1.42;;;20.80;72.70;;;;;;5118263;28;20394;-62
2021/06/07 00:02:47;;;;;;;1.63;1.52;;;20.80;72.70;;;;;;5129088;28;20495;-59
2021/06/07 00:05:14;;;;;;;1.70;1.60;;;20.70;72.60;;;;;;5124944;28;20679;-58
2021/06/07 00:07:40;;;;;;;1.50;1.40;;;20.70;72.60;;;;;;5112209;28;20070;-58
2021/06/07 00:10:09;;;;;;;1.70;1.40;;;20.70;72.60;;;;;;5113650;28;20495;-56
2021/06/07 00:12:34;;;;;;;1.50;1.40;;;20.70;73.30;;;;;;5113550;28;20047;-58
2021/06/07 00:15:00;;;;;;;1.63;1.52;;;20.70;72.60;;;;;;5115610;28;20047;-61
2021/06/07 00:17:26;;;;;;;1.48;1.38;;;20.70;72.60;;;;;;5115605;28;20051;-60
2021/06/07 00:19:52;;;;;;;1.30;1.20;;;20.70;72.70;;;;;;5115431;28;20051;-56
2021/06/07 00:22:18;;;;;;;1.75;1.42;;;20.70;72.70;;;;;;5115856;28;20134;-62
2021/06/07 00:24:44;;;;;;;1.40;1.30;;;20.70;72.70;;;;;;5115272;28;20548;-62
2021/06/07 00:27:09;;;;;;;3.97;1.98;;;20.70;72.70;;;;;;5115421;28;20487;-63
2021/06/07 00:29:35;;;;;;;1.45;1.33;;;20.70;72.70;;;;;;5115636;28;20472;-61
2021/06/07 00:32:01;;;;;;;1.75;1.55;;;20.70;72.70;;;;;;5115292;28;20043;-61
2021/06/07 00:34:26;;;;;;;1.48;1.27;;;20.70;72.70;;;;;;5114846;28;20050;-63
2021/06/07 00:36:52;;;;;;;1.40;1.30;;;20.70;72.70;;;;;;5115583;28;20488;-63
2021/06/07 00:39:18;;;;;;;1.77;1.40;;;20.70;72.70;;;;;;5115103;28;20058;-62
2021/06/07 00:41:47;;;;;;;1.42;1.30;;;20.70;72.70;;;;;;5115641;28;20039;-61
2021/06/07 00:44:19;;;;;;;1.38;1.27;;;20.70;72.70;;;;;;5115261;28;20131;-63
2021/06/07 00:46:46;;;;;;;1.55;1.45;;;20.70;72.70;;;;;;5115516;28;20048;-63
2021/06/07 00:49:12;;;;;;;1.35;1.10;;;20.60;72.70;;;;;;5115231;28;20040;-62
2021/06/07 00:51:39;;;;;;;1.40;1.30;;;20.70;72.70;;;;;;5115018;28;20134;-63
2021/06/07 00:54:06;;;;;;;1.42;1.30;;;20.70;73.40;;;;;;5114870;28;20044;-64
2021/06/07 00:56:32;;;;;;;1.40;1.30;;;20.70;72.80;;;;;;5115417;28;20148;-63
2021/06/07 00:58:59;;;;;;;1.55;1.45;;;20.60;72.70;;;;;;5115073;28;20047;-63
2021/06/07 01:01:27;;;;;;;1.40;1.30;;;20.70;72.70;;;;;;5115054;28;20039;-63
2021/06/07 01:03:56;;;;;;;1.65;1.38;;;20.70;72.80;;;;;;5114929;28;20055;-63
2021/06/07 01:06:22;;;;;;;1.40;1.30;;;20.70;72.80;;;;;;5114655;28;20422;-59
2021/06/07 01:08:49;;;;;;;1.45;1.35;;;20.60;72.80;;;;;;5115018;28;20163;-62
2021/06/07 01:11:15;;;;;;;1.60;1.50;;;20.70;72.80;;;;;;5115340;28;20079;-59
2021/06/07 01:13:42;;;;;;;1.27;1.17;;;20.60;72.80;;;;;;5115351;28;20047;-62
2021/06/07 01:16:09;;;;;;;1.25;1.15;;;20.60;72.80;;;;;;5119364;27;20075;-62
2021/06/07 01:18:35;;;;;;;1.73;1.63;;;20.60;72.80;;;;;;5135516;27;20081;-62
2021/06/07 01:21:08;;;;;;;2.00;1.38;;;20.60;72.80;;;;;;5133371;27;20154;-62
2021/06/07 01:23:34;;;;;;;1.52;1.27;;;20.60;72.80;;;;;;5135283;27;20047;-59
2021/06/07 01:26:02;;;;;;;1.30;1.20;;;20.60;72.80;;;;;;5122604;27;20388;-60
2021/06/07 01:28:29;;;;;;;1.75;1.40;;;20.60;72.80;;;;;;5115034;28;20072;-62
2021/06/07 01:30:56;;;;;;;1.50;1.38;;;20.60;72.80;;;;;;5116111;27;20395;-60
2021/06/07 01:33:24;;;;;;;1.30;1.20;;;20.60;72.80;;;;;;5114900;28;20400;-60
2021/06/07 01:35:57;;;;;;;1.60;1.50;;;20.60;72.80;;;;;;5124650;27;20047;-60
2021/06/07 01:38:23;;;;;;;1.40;1.20;;;20.60;72.80;;;;;;5132928;27;20047;-59
2021/06/07 01:40:56;;;;;;;1.30;1.20;;;20.60;72.80;;;;;;5133247;27;20429;-62
2021/06/07 01:43:22;;;;;;;1.25;1.15;;;20.60;72.90;;;;;;5135245;27;20047;-61
2021/06/07 01:45:51;;;;;;;1.27;1.17;;;20.60;72.80;;;;;;5101042;28;20081;-57
2021/06/07 01:48:18;;;;;;;1.35;1.25;;;20.60;72.90;;;;;;5115614;27;20050;-61
2021/06/07 01:50:45;;;;;;;1.63;1.40;;;20.50;72.80;;;;;;5113355;28;20043;-58
2021/06/07 01:53:13;;;;;;;1.58;1.48;;;20.60;73.60;;;;;;5113097;27;20400;-50
2021/06/07 01:55:41;;;;;;;1.23;1.13;;;20.60;72.90;;;;;;5113833;28;20036;-61
2021/06/07 01:58:09;;;;;;;1.05;1.05;;;20.60;72.90;;;;;;5115043;27;20097;-62
2021/06/07 02:00:41;;;;;;;1.38;1.27;;;20.50;72.80;;;;;;5114036;28;20050;-55
2021/06/07 02:03:08;;;;;;;1.33;1.23;;;20.60;72.90;;;;;;5126741;27;20076;-63
2021/06/07 02:05:37;;;;;;;1.30;1.20;;;20.60;72.90;;;;;;5125759;27;20062;-62
2021/06/07 02:08:08;;;;;;;1.20;1.10;;;20.50;72.80;;;;;;5114926;27;20050;-58
2021/06/07 02:10:40;;;;;;;1.40;1.30;;;20.50;72.90;;;;;;5113786;28;20047;-61
2021/06/07 02:13:07;;;;;;;1.38;1.10;;;20.50;72.90;;;;;;5113758;28;20046;-61
2021/06/07 02:15:33;;;;;;;1.30;1.20;;;20.50;72.90;;;;;;5113953;28;20052;-55
2021/06/07 02:18:01;;;;;;;1.58;1.38;;;20.50;72.80;;;;;;5113194;28;20048;-55
2021/06/07 02:20:27;;;;;;;1.30;1.20;;;20.50;72.90;;;;;;5112418;28;20555;-60
2021/06/07 02:22:53;;;;;;;1.65;1.55;;;20.50;72.90;;;;;;5113255;28;20044;-57
2021/06/07 02:25:21;;;;;;;1.42;1.15;;;20.50;72.90;;;;;;5113228;28;20047;-63
2021/06/07 02:27:47;;;;;;;0.95;0.90;;;20.50;72.90;;;;;;5113336;28;20051;-54
2021/06/07 02:30:19;;;;;;;1.27;1.17;;;20.60;72.90;;;;;;5113694;28;20093;-61
2021/06/07 02:32:45;;;;;;;1.30;1.20;;;20.50;72.90;;;;;;5113230;28;20051;-61
2021/06/07 02:35:14;;;;;;;1.20;1.10;;;20.50;72.90;;;;;;5113450;28;20130;-61
2021/06/07 02:37:40;;;;;;;1.27;1.17;;;20.50;72.90;;;;;;5113279;28;20399;-59
2021/06/07 02:40:08;;;;;;;1.40;1.30;;;20.50;72.90;;;;;;5112762;28;20050;-58
2021/06/07 02:42:36;;;;;;;1.02;1.02;;;20.50;72.90;;;;;;5112783;28;20134;-63
2021/06/07 02:45:03;;;;;;;1.77;1.20;;;20.50;72.90;;;;;;5112307;28;20043;-53
2021/06/07 02:47:28;;;;;;;1.33;1.20;;;20.50;72.90;;;;;;5112687;28;20461;-60
2021/06/07 02:49:54;;;;;;;1.30;1.20;;;20.50;72.90;;;;;;5112574;28;20063;-58
2021/06/07 02:52:20;;;;;;;1.42;1.30;;;20.50;72.90;;;;;;5112794;28;20043;-62
2021/06/07 02:54:45;;;;;;;1.10;1.00;;;20.50;72.90;;;;;;5094385;28;20039;-61
2021/06/07 02:57:11;;;;;;;1.38;1.27;;;20.40;72.90;;;;;;5112641;28;20100;-62
2021/06/07 02:59:37;;;;;;;1.55;1.45;;;20.50;72.90;;;;;;5112399;28;20048;-60
2021/06/07 03:02:04;;;;;;;1.30;1.20;;;20.50;72.90;;;;;;5111393;28;20156;-62
2021/06/07 03:04:29;;;;;;;1.35;1.25;;;20.50;73.00;;;;;;5112481;28;20097;-63
2021/06/07 03:06:56;;;;;;;2.05;1.30;;;20.40;72.90;;;;;;5111854;28;20043;-64
2021/06/07 03:09:21;;;;;;;1.42;1.33;;;20.40;72.90;;;;;;5112838;28;20057;-63
2021/06/07 03:11:47;;;;;;;1.30;1.20;;;20.50;72.90;;;;;;5112627;28;20048;-62
2021/06/07 03:14:13;;;;;;;1.27;1.15;;;20.50;72.90;;;;;;5112979;28;20487;-63
2021/06/07 03:16:39;;;;;;;0.93;0.93;;;20.50;73.00;;;;;;5116266;28;20069;-64
2021/06/07 03:19:07;;;;;;;1.17;1.10;;;20.40;72.90;;;;;;5113425;28;20075;-63
2021/06/07 03:21:33;;;;;;;1.30;1.20;;;20.40;72.90;;;;;;5117489;28;20070;-63
2021/06/07 03:23:58;;;;;;;1.30;1.20;;;20.40;73.00;;;;;;5125399;28;20502;-59
2021/06/07 03:26:24;;;;;;;1.35;1.25;;;20.40;72.90;;;;;;5112889;28;20122;-61
2021/06/07 03:28:50;;;;;;;1.30;1.20;;;20.40;72.90;;;;;;5127045;28;20111;-60
2021/06/07 03:31:16;;;;;;;1.33;1.00;;;20.40;72.90;;;;;;5124042;28;20077;-60
2021/06/07 03:33:41;;;;;;;1.38;1.20;;;20.40;73.00;;;;;;5131440;28;20082;-61
2021/06/07 03:36:08;;;;;;;1.13;1.02;;;20.50;73.00;;;;;;5120703;28;20047;-57
2021/06/07 03:38:34;;;;;;;1.30;1.20;;;20.40;73.00;;;;;;5112888;28;20344;-62
2021/06/07 03:41:01;;;;;;;1.20;1.10;;;20.40;73.00;;;;;;5123861;28;20039;-61
2021/06/07 03:43:32;;;;;;;1.20;1.10;;;20.40;73.00;;;;;;5122913;28;20434;-59
2021/06/07 03:45:58;;;;;;;1.30;1.20;;;20.40;73.00;;;;;;5133329;28;20046;-60
2021/06/07 03:48:24;;;;;;;1.50;1.23;;;20.40;73.00;;;;;;5134273;27;20047;-60
2021/06/07 03:50:51;;;;;;;0.95;0.93;;;20.40;73.00;;;;;;5136623;27;20065;-62
2021/06/07 03:53:16;;;;;;;1.40;1.30;;;20.40;73.00;;;;;;5133444;27;20498;-62
2021/06/07 03:55:42;;;;;;;1.23;1.13;;;20.40;73.00;;;;;;5114095;27;20075;-61
2021/06/07 03:58:09;;;;;;;1.65;1.30;;;20.40;73.00;;;;;;5126126;27;20040;-55
2021/06/07 04:00:36;;;;;;;1.25;1.02;;;20.40;73.00;;;;;;5136489;27;20051;-58
2021/06/07 04:03:05;;;;;;;0.85;0.85;;;20.40;73.10;;;;;;5136273;27;20064;-62
2021/06/07 04:05:31;;;;;;;1.35;1.25;;;20.40;73.00;;;;;;5135156;27;20491;-63
2021/06/07 04:07:58;;;;;;;1.30;1.20;;;20.40;73.00;;;;;;5136902;27;20042;-61
2021/06/07 04:10:26;;;;;;;1.27;1.17;;;20.40;73.00;;;;;;5129652;27;20567;-62
2021/06/07 04:12:52;;;;;;;1.50;1.40;;;20.40;73.00;;;;;;5115725;28;20082;-61
2021/06/07 04:15:20;;;;;;;0.88;0.88;;;20.30;73.00;;;;;;5123605;27;20459;-61
2021/06/07 04:17:47;;;;;;;1.20;0.95;;;20.40;73.10;;;;;;5136230;27;20055;-60
2021/06/07 04:20:15;;;;;;;0.98;0.98;;;20.20;72.90;;;;;;5136276;27;20107;-62
2021/06/07 04:22:43;;;;;;;1.38;1.27;;;20.30;73.00;;;;;;5136681;27;20130;-62
2021/06/07 04:25:10;;;;;;;1.15;1.10;;;20.30;73.00;;;;;;5123101;27;20047;-60
2021/06/07 04:27:38;;;;;;;1.40;1.30;;;20.30;73.00;;;;;;5120588;27;20112;-64
2021/06/07 04:30:10;;;;;;;0.80;0.80;;;20.30;73.00;;;;;;5132366;27;20055;-63
2021/06/07 04:32:38;;;;;;;1.27;1.17;;;20.30;73.00;;;;;;5116263;27;20105;-62
2021/06/07 04:35:08;;;;;;;1.20;1.10;;;20.30;73.10;;;;;;5116411;28;20054;-63
2021/06/07 04:37:50;;;;;;;1.02;0.98;;;20.30;73.70;;;;;;5118736;27;20043;-64
2021/06/07 04:40:18;;;;;;;1.13;1.05;;;20.30;73.00;;;;;;5136588;27;20043;-63
2021/06/07 04:42:44;;;;;;;1.38;1.20;;;20.30;73.00;;;;;;5119570;27;20036;-64
2021/06/07 04:45:10;;;;;;;1.30;1.20;;;20.30;73.00;;;;;;5136062;27;20171;-64
2021/06/07 04:47:36;;;;;;;1.15;1.05;;;20.30;73.10;;;;;;5134633;27;20059;-64
2021/06/07 04:50:07;;;;;;;1.08;0.98;;;20.40;73.10;;;;;;5132195;27;20059;-64
2021/06/07 04:52:33;;;;;;;1.05;0.95;;;20.30;73.10;;;;;;5115642;28;20120;-64
2021/06/07 04:54:59;;;;;;;1.10;1.00;;;20.30;73.10;;;;;;5123341;27;20057;-62
2021/06/07 04:57:25;;;;;;;0.90;0.90;;;20.30;73.10;;;;;;5115936;27;20039;-62
2021/06/07 04:59:51;;;;;;;1.10;1.00;;;20.30;73.10;;;;;;5132544;27;20471;-61
2021/06/07 05:02:16;;;;;;;1.23;1.08;;;20.30;73.10;;;;;;5135866;27;20368;-61
2021/06/07 05:04:42;;;;;;;1.20;1.10;;;20.30;73.20;;;;;;5134742;27;20047;-59
2021/06/07 05:07:08;;;;;;;1.38;1.27;;;20.30;73.10;;;;;;5115333;28;20104;-61
2021/06/07 05:09:34;;;;;;;1.20;1.10;;;20.30;73.20;;;;;;5117272;27;20126;-62
2021/06/07 05:12:00;;;;;;;1.40;1.30;;;20.30;73.20;;;;;;5125925;27;20150;-61
2021/06/07 05:14:25;;;;;;;1.25;1.10;;;20.30;73.10;;;;;;5131580;27;20059;-63
2021/06/07 05:16:51;;;;;;;1.00;0.90;;;20.30;73.10;;;;;;5135858;27;20051;-63
2021/06/07 05:19:19;;;;;;;1.20;1.10;;;20.30;73.10;;;;;;5133929;27;20062;-64
2021/06/07 05:21:45;;;;;;;0.95;0.95;;;20.30;73.10;;;;;;5135543;27;20035;-63
2021/06/07 05:24:10;;;;;;;1.00;0.90;;;20.30;73.20;;;;;;5135511;27;20134;-63
2021/06/07 05:26:36;;;;;;;1.40;1.30;;;20.30;73.20;;;;;;5135343;27;20035;-63
2021/06/07 05:29:02;;;;;;;1.27;1.10;;;20.30;73.20;;;;;;5133562;27;20043;-61
2021/06/07 05:31:27;;;;;;;0.82;0.82;;;20.30;73.20;;;;;;5134508;27;20043;-63
2021/06/07 05:33:53;;;;;;;1.63;1.17;;;20.30;73.20;;;;;;5135377;27;20506;-59
2021/06/07 05:36:19;;;;;;;0.80;0.80;;;20.30;73.20;;;;;;5134506;27;20043;-63
2021/06/07 05:38:45;;;;;;;1.00;0.90;;;20.30;73.20;;;;;;5134912;27;20043;-55
2021/06/07 05:41:10;;;;;;;0.90;0.90;;;20.30;73.20;;;;;;5132845;27;20073;-62
2021/06/07 05:43:36;;;;;;;0.95;0.88;;;20.30;73.20;;;;;;5118926;27;20047;-64
2021/06/07 05:46:02;;;;;;;1.00;0.90;;;20.30;73.20;;;;;;5112944;27;20035;-64
2021/06/07 05:48:28;;;;;;;1.00;1.00;;;20.30;73.20;;;;;;5113879;28;20040;-63
2021/06/07 05:50:53;;;;;;;0.90;0.90;;;20.30;73.20;;;;;;5114744;27;20035;-65
2021/06/07 05:53:20;;;;;;;0.85;0.85;;;20.30;73.30;;;;;;5113274;28;20050;-64
2021/06/07 05:55:47;;;;;;;1.10;1.00;;;20.20;73.20;;;;;;5113534;28;20047;-63
2021/06/07 05:58:19;;;;;;;0.93;0.93;;;20.30;73.30;;;;;;5113593;28;20040;-59
2021/06/07 06:00:47;;;;;;;1.25;1.15;;;20.30;73.30;;;;;;5112818;28;20373;-62
2021/06/07 06:03:15;;;;;;;1.00;1.00;;;20.20;73.20;;;;;;5114233;27;20036;-62
2021/06/07 06:05:41;;;;;;;1.23;1.13;;;20.20;73.20;;;;;;5114044;28;20055;-63
2021/06/07 06:08:07;;;;;;;1.08;0.98;;;20.30;73.90;;;;;;5114062;28;20055;-63
2021/06/07 06:10:35;;;;;;;1.30;1.13;;;20.30;73.30;;;;;;5113536;28;20058;-63
2021/06/07 06:13:01;;;;;;;1.02;0.95;;;20.20;73.20;;;;;;5114878;28;20051;-63
2021/06/07 06:15:28;;;;;;;0.88;0.85;;;20.30;73.30;;;;;;5113842;28;20092;-63
2021/06/07 06:17:54;;;;;;;1.30;1.20;;;20.30;73.30;;;;;;5113655;28;20059;-63
2021/06/07 06:20:20;;;;;;;0.80;0.80;;;20.30;73.30;;;;;;5113931;28;20480;-57
2021/06/07 06:22:46;;;;;;;1.13;1.02;;;20.30;73.30;;;;;;5113161;28;20044;-63
2021/06/07 06:25:17;;;;;;;1.15;1.05;;;20.30;73.30;;;;;;5113536;28;20071;-63
2021/06/07 06:27:44;;;;;;;1.10;1.00;;;20.20;73.20;;;;;;5113384;28;20071;-54
2021/06/07 06:30:16;;;;;;;0.90;0.90;;;20.30;73.30;;;;;;5113457;28;20050;-63
2021/06/07 06:32:42;;;;;;;1.00;1.00;;;20.30;73.30;;;;;;5113083;28;20487;-62
2021/06/07 06:35:09;;;;;;;1.40;1.30;;;20.30;73.30;;;;;;5113180;28;20055;-62
2021/06/07 06:37:35;;;;;;;0.80;0.80;;;20.30;73.30;;;;;;5113838;28;20040;-63
2021/06/07 06:40:02;;;;;;;1.27;1.13;;;20.30;73.20;;;;;;5113481;28;20043;-62
2021/06/07 06:42:28;;;;;;;0.80;0.80;;;20.40;73.30;;;;;;5113446;28;20122;-63
2021/06/07 06:44:54;;;;;;;0.85;0.85;;;20.20;73.20;;;;;;5112968;28;20177;-57
2021/06/07 06:47:20;;;;;;;0.90;0.90;;;20.30;73.30;;;;;;5112337;28;20104;-63
2021/06/07 06:49:45;;;;;;;0.80;0.80;;;20.30;73.20;;;;;;5113218;28;20544;-61
2021/06/07 06:52:11;;;;;;;0.80;0.80;;;20.20;73.10;;;;;;5113443;28;20071;-63
2021/06/07 06:54:37;;;;;;;1.10;1.05;;;20.30;73.90;;;;;;5112923;28;20043;-63
2021/06/07 06:57:03;;;;;;;0.98;0.98;;;20.30;73.20;;;;;;5113283;28;20097;-61
2021/06/07 06:59:29;;;;;;;1.48;0.82;;;20.30;73.20;;;;;;5112717;28;20048;-63
2021/06/07 07:01:55;;;;;;;0.95;0.93;;;20.30;73.20;;;;;;5113084;28;20457;-57
2021/06/07 07:04:20;;;;;;;1.15;1.05;;;20.30;73.20;;;;;;5112346;28;20039;-57
2021/06/07 07:06:47;;;;;;;0.80;0.80;;;20.30;73.10;;;;;;5112625;28;20448;-57
2021/06/07 07:09:12;;;;;;;0.85;0.85;;;20.30;73.10;;;;;;5113251;28;20063;-57
2021/06/07 07:11:39;;;;;;;0.70;0.70;;;20.30;73.20;;;;;;5112746;28;20052;-56
2021/06/07 07:14:04;;;;;;;0.70;0.70;;;20.30;73.20;;;;;;5112520;28;20505;-57
2021/06/07 07:16:30;;;;;;;0.85;0.85;;;20.30;73.10;;;;;;5112425;28;20052;-57
2021/06/07 07:18:56;;;;;;;1.20;0.95;;;20.30;73.10;;;;;;5112047;28;20040;-57
2021/06/07 07:21:22;;;;;;;1.00;0.90;;;20.30;73.10;;;;;;5112464;28;20441;-56
2021/06/07 07:23:48;;;;;;;0.73;0.70;;;20.30;73.10;;;;;;5114585;28;20059;-56
2021/06/07 07:26:14;;;;;;;4.65;2.10;;;20.30;73.10;;;;;;5116991;28;20040;-54
2021/06/07 07:28:41;;;;;;;1.88;1.67;;;20.40;72.30;;;;;;5117355;28;20391;-55
2021/06/07 07:31:08;;;;;;;3.20;2.00;;;20.50;71.80;;;;;;5116960;28;20088;-57
2021/06/07 07:33:38;;;;;;;5.03;2.50;;;20.50;71.50;;;;;;5116598;28;20082;-50
2021/06/07 07:36:11;;;;;;;5.03;2.30;;;20.50;71.40;;;;;;5117034;28;20043;-54
2021/06/07 07:38:37;;;;;;;1.98;1.80;;;20.40;71.20;;;;;;5116925;28;20126;-54
2021/06/07 07:41:03;;;;;;;1.92;1.63;;;20.50;71.20;;;;;;5097991;28;20165;-54
2021/06/07 07:43:29;;;;;;;1.60;1.50;;;20.50;71.20;;;;;;5116982;28;20036;-54
2021/06/07 07:45:55;;;;;;;1.67;1.58;;;20.50;71.20;;;;;;5117183;28;20058;-53
2021/06/07 07:48:21;;;;;;;4.38;2.08;;;20.50;71.30;;;;;;5116265;28;20128;-52
2021/06/07 07:50:47;;;;;;;2.13;1.77;;;20.50;71.00;;;;;;5115924;28;20065;-53
2021/06/07 07:53:14;;;;;;;4.90;2.15;;;20.60;70.50;;;;;;5116769;28;20427;-52
2021/06/07 07:55:39;;;;;;;3.42;1.60;;;20.60;70.40;;;;;;5116392;28;20054;-52
2021/06/07 07:58:10;;;;;;;7.15;1.60;;;20.60;70.40;;;;;;5116118;28;20110;-48
2021/06/07 08:00:38;;;;;;;1.80;1.10;;;20.70;70.40;;;;;;5096018;28;20044;-51
2021/06/07 08:03:04;;;;;;;1.85;1.60;;;20.70;70.60;;;;;;5096930;28;20048;-49
2021/06/07 08:05:31;;;;;;;1.70;1.60;;;20.60;70.60;;;;;;5100475;28;20047;-51
2021/06/07 08:07:58;;;;;;;1.67;1.40;;;20.70;70.70;;;;;;5104260;28;20047;-51
2021/06/07 08:10:23;;;;;;;2.92;1.38;;;20.70;70.80;;;;;;5111961;28;20047;-53
2021/06/07 08:12:50;;;;;;;2.22;1.35;;;20.70;70.90;;;;;;5116355;28;20074;-52
2021/06/07 08:15:16;;;;;;;2.88;1.27;;;20.70;71.00;;;;;;5115949;28;20873;-54
2021/06/07 08:17:42;;;;;;;1.30;1.13;;;20.70;71.00;;;;;;5131268;27;20479;-52
2021/06/07 08:20:14;;;;;;;2.90;1.23;;;20.70;71.10;;;;;;5127491;27;20149;-51
2021/06/07 08:22:41;;;;;;;1.77;1.20;;;20.70;71.10;;;;;;5115570;28;20035;-50
2021/06/07 08:25:08;;;;;;;2.88;1.48;;;20.70;71.10;;;;;;5115109;28;20484;-51
2021/06/07 08:27:35;;;;;;;3.08;1.30;;;20.70;71.20;;;;;;5115690;28;20035;-52
2021/06/07 08:30:01;;;;;;;1.70;1.20;;;20.80;71.30;;;;;;5115148;28;20048;-49
2021/06/07 08:32:26;;;;;;;1.92;1.30;;;20.70;71.30;;;;;;5115226;28;20262;-54
2021/06/07 08:34:52;;;;;;;1.27;1.15;;;20.80;71.40;;;;;;5115342;28;20555;-51
2021/06/07 08:37:18;;;;;;;1.90;1.40;;;20.80;71.50;;;;;;5114959;28;20059;-47
2021/06/07 08:39:45;;;;;;;1.60;1.20;;;20.70;71.40;;;;;;5116041;28;20158;-50
2021/06/07 08:42:11;;;;;;;1.55;1.10;;;20.80;71.50;;;;;;5115023;28;20495;-52
2021/06/07 08:44:39;;;;;;;1.35;1.17;;;20.80;71.50;;;;;;5115215;28;20043;-47
2021/06/07 08:47:05;;;;;;;1.27;0.90;;;20.80;71.50;;;;;;5114902;27;20051;-50
2021/06/07 08:49:31;;;;;;;1.60;1.20;;;20.80;71.60;;;;;;5115633;28;20054;-47
2021/06/07 08:51:57;;;;;;;1.17;1.00;;;20.90;71.60;;;;;;5114145;28;20403;-54
2021/06/07 08:54:23;;;;;;;1.63;0.90;;;20.90;71.70;;;;;;5114779;28;20044;-50
2021/06/07 08:56:49;;;;;;;1.27;1.13;;;20.90;71.60;;;;;;5114865;27;20122;-52
2021/06/07 08:59:15;;;;;;;0.88;0.88;;;20.90;71.70;;;;;;5115684;27;20070;-51
2021/06/07 09:01:40;;;;;;;1.73;1.17;;;20.90;71.70;;;;;;5115289;28;20066;-50
2021/06/07 09:04:15;;;;;;;0.90;0.82;;;20.90;71.70;;;;;;5114991;28;20055;-50
2021/06/07 09:06:43;;;;;;;0.90;0.82;;;20.90;71.70;;;;;;5114697;28;20077;-52
2021/06/07 09:09:11;;;;;;;0.88;0.88;;;20.90;71.70;;;;;;5111679;28;20499;-49
2021/06/07 09:11:45;;;;;;;0.70;0.70;;;21.00;71.70;;;;;;5123775;27;20050;-51
2021/06/07 09:14:20;;;;;;;;;;;21.00;71.70;;;;;;5119095;27;20046;-51
2021/06/07 09:16:46;;;;;;;0.88;0.88;;;21.00;71.60;;;;;;5129843;27;19919;-51
2021/06/07 09:19:20;;;;;;;0.77;0.60;;;21.00;71.70;;;;;;5114182;28;20050;-52
2021/06/07 09:21:47;;;;;;;0.80;0.80;;;21.00;71.60;;;;;;5114179;28;20422;-50
2021/06/07 09:24:14;;;;;;;1.27;0.95;;;21.00;71.60;;;;;;5112536;28;20051;-52
2021/06/07 09:26:43;;;;;;;0.80;0.80;;;21.00;71.60;;;;;;5114248;28;20085;-51
2021/06/07 09:29:32;;;;;;;0.88;0.68;;;21.00;71.50;;;;;;5114329;27;20066;-51
2021/06/07 09:31:59;;;;;;;0.80;0.80;;;21.00;71.50;;;;;;5112950;27;20430;-51
2021/06/07 09:34:32;;;;;;;1.88;0.90;;;21.10;71.60;;;;;;5122462;27;20452;-53
2021/06/07 09:37:05;;;;;;;0.85;0.80;;;21.10;71.50;;;;;;5125638;27;20054;-50
2021/06/07 09:39:31;;;;;;;0.73;0.73;;;21.10;71.50;;;;;;5116576;27;20473;-49
2021/06/07 09:42:08;;;;;;;0.98;0.77;;;21.10;71.50;;;;;;5134506;27;20049;-52
2021/06/07 09:44:43;;;;;;;0.73;0.60;;;21.10;72.10;;;;;;5132200;27;20047;-50
2021/06/07 09:47:26;;;;;;;0.88;0.70;;;21.20;71.40;;;;;;5107590;28;20048;-52
2021/06/07 09:49:58;;;;;;;0.68;0.65;;;21.20;71.40;;;;;;5112775;28;20053;-52
2021/06/07 09:52:28;;;;;;;1.20;0.95;;;21.20;71.40;;;;;;5114120;28;20500;-50
2021/06/07 09:55:12;;;;;;;0.77;0.70;;;21.20;71.40;;;;;;5110702;27;20047;-52
2021/06/07 09:58:07;;;;;;;1.38;0.75;;;21.20;71.40;;;;;;5113207;28;20172;-50
2021/06/07 10:00:43;;;;;;;0.70;0.65;;;21.30;71.30;;;;;;5110860;28;20093;-51
2021/06/07 10:03:29;;;;;;;0.80;0.75;;;21.20;71.30;;;;;;5113051;28;20074;-45
2021/06/07 10:06:19;;;;;;;2.35;0.80;;;21.30;71.30;;;;;;5111616;28;20054;-46
2021/06/07 10:08:47;;;;;;;2.17;0.63;;;21.30;71.20;;;;;;5103216;28;20142;-53
2021/06/07 10:11:22;;;;;;;1.20;0.80;;;21.30;71.20;;;;;;5113574;28;20498;-51
2021/06/07 10:13:49;;;;;;;0.77;0.77;;;21.30;71.20;;;;;;5113634;28;20055;-53
2021/06/07 10:16:16;;;;;;;0.80;0.80;;;21.30;71.20;;;;;;5113851;28;20067;-50
2021/06/07 10:18:42;;;;;;;0.52;0.52;;;21.40;71.20;;;;;;5112880;28;20051;-53
2021/06/07 10:21:11;;;;;;;0.52;0.52;;;21.40;71.10;;;;;;5113278;28;20126;-53
2021/06/07 10:23:37;;;;;;;0.70;0.60;;;21.40;71.10;;;;;;5113411;28;20468;-46
2021/06/07 10:26:06;;;;;;;1.38;0.80;;;21.40;71.10;;;;;;5112988;28;20052;-46
2021/06/07 10:28:35;;;;;;;0.60;0.60;;;21.40;71.10;;;;;;5112993;28;20456;-46
2021/06/07 10:31:13;;;;;;;0.60;0.60;;;21.50;71.10;;;;;;5113110;28;20050;-46
2021/06/07 10:33:40;;;;;;;0.90;0.60;;;21.50;71.00;;;;;;5112989;28;20050;-49
2021/06/07 10:36:21;;;;;;;0.60;0.60;;;21.50;71.00;;;;;;5113222;28;20044;-53
2021/06/07 10:38:48;;;;;;;1.45;0.68;;;21.50;70.90;;;;;;5113230;28;20126;-51
2021/06/07 10:41:26;;;;;;;0.88;0.80;;;21.50;70.90;;;;;;5094241;28;20044;-53
2021/06/07 10:43:57;;;;;;;0.90;0.90;;;21.50;70.80;;;;;;5112936;28;20052;-49
2021/06/07 10:46:32;;;;;;;0.63;0.63;;;21.60;70.90;;;;;;5113021;28;20043;-51
2021/06/07 10:49:00;;;;;;;0.80;0.60;;;21.50;70.80;;;;;;5112205;28;20075;-52
2021/06/07 10:51:29;;;;;;;0.77;0.77;;;21.60;70.80;;;;;;5113031;28;20047;-53
2021/06/07 10:54:29;;;;;;;4.05;2.20;;;21.50;70.70;;;;;;5112935;28;20051;-54
2021/06/07 10:56:55;;;;;;;5.68;2.47;;;21.60;66.50;;;;;;5112518;28;20058;-57
2021/06/07 10:59:20;;;;;;;6.30;2.25;;;21.70;67.70;;;;;;5112542;28;20051;-56
2021/06/07 11:01:51;;;;;;;4.13;2.88;;;21.70;67.50;;;;;;5112758;28;20490;-55
2021/06/07 11:04:33;;;;;;;3.53;2.83;;;21.80;67.60;;;;;;5112996;28;20050;-56
2021/06/07 11:07:08;;;;;;;2.88;2.50;;;21.80;67.60;;;;;;5117167;28;20047;-56
2021/06/07 11:09:34;;;;;;;2.42;2.20;;;21.80;67.80;;;;;;5114279;28;20044;-53
2021/06/07 11:12:03;;;;;;;3.17;2.50;;;21.80;68.00;;;;;;5112522;28;20558;-57
2021/06/07 11:14:30;;;;;;;3.33;2.15;;;21.80;68.00;;;;;;5113175;28;20048;-56
2021/06/07 11:16:57;;;;;;;2.75;2.20;;;21.80;68.10;;;;;;5119924;28;20051;-56
2021/06/07 11:19:23;;;;;;;3.22;2.20;;;21.80;68.20;;;;;;5133796;28;20088;-56
2021/06/07 11:22:00;;;;;;;2.38;2.08;;;21.80;68.20;;;;;;5131649;28;20043;-56
2021/06/07 11:24:31;;;;;;;4.13;1.95;;;21.80;68.30;;;;;;5114967;28;20039;-56
2021/06/07 11:26:58;;;;;;;1.98;1.80;;;21.80;68.40;;;;;;5132551;28;20503;-56
2021/06/07 11:29:24;;;;;;;3.13;2.13;;;21.80;68.40;;;;;;5133107;28;20177;-56
2021/06/07 11:31:52;;;;;;;2.00;1.85;;;21.80;68.50;;;;;;5131455;28;20039;-56
2021/06/07 11:34:39;;;;;;;1.90;1.73;;;21.90;68.60;;;;;;5133176;28;20055;-58
2021/06/07 11:37:07;;;;;;;1.45;1.33;;;21.80;68.60;;;;;;5133724;28;20047;-57
2021/06/07 11:39:41;;;;;;;2.70;1.88;;;21.90;68.60;;;;;;5133457;28;20043;-56
2021/06/07 11:42:08;;;;;;;2.42;1.80;;;21.90;68.60;;;;;;5131631;28;20065;-57
2021/06/07 11:44:45;;;;;;;1.75;1.42;;;21.90;68.70;;;;;;5132972;28;20047;-56
2021/06/07 11:47:15;;;;;;;1.55;1.45;;;21.90;68.70;;;;;;5132999;28;20050;-56
2021/06/07 11:49:56;;;;;;;1.60;1.50;;;21.90;68.70;;;;;;5133253;28;20123;-56
2021/06/07 11:52:47;;;;;;;2.72;1.30;;;21.90;68.70;;;;;;5131058;28;20044;-55
2021/06/07 11:55:32;;;;;;;1.50;1.40;;;21.90;68.70;;;;;;5132837;28;20058;-56
2021/06/07 11:58:08;;;;;;;1.50;1.40;;;21.90;68.70;;;;;;5132449;28;20046;-57
2021/06/07 12:00:37;;;;;;;1.92;1.40;;;21.90;68.80;;;;;;5132467;28;20047;-56
2021/06/07 12:03:07;;;;;;;1.23;1.10;;;21.90;68.80;;;;;;5131254;28;20070;-53
2021/06/07 12:05:33;;;;;;;1.63;1.52;;;22.00;68.80;;;;;;5132139;28;20039;-56
2021/06/07 12:08:21;;;;;;;1.27;1.17;;;22.00;68.80;;;;;;5132549;28;20044;-57
2021/06/07 12:10:58;;;;;;;1.15;1.08;;;22.00;68.80;;;;;;5136116;27;20039;-53
2021/06/07 12:13:41;;;;;;;0.80;0.80;;;22.00;68.80;;;;;;5136357;27;20058;-52
2021/06/07 12:16:09;;;;;;;1.42;1.13;;;22.00;68.80;;;;;;5095620;28;20044;-56
2021/06/07 12:18:48;;;;;;;1.20;0.90;;;22.00;68.80;;;;;;5113992;28;20055;-56
2021/06/07 12:21:16;;;;;;;1.17;1.08;;;22.00;68.80;;;;;;5125849;27;20035;-55
2021/06/07 12:23:56;;;;;;;1.27;1.00;;;22.00;68.80;;;;;;5136352;27;20063;-56
2021/06/07 12:29:27;;;;;;;1.25;1.05;;;22.00;68.80;;;;;;5136161;27;20126;-56
2021/06/07 12:32:15;;;;;;;2.03;1.23;;;22.10;68.90;;;;;;5136293;27;20066;-55
2021/06/07 12:35:07;;;;;;;1.00;0.77;;;22.00;68.80;;;;;;5136165;27;20505;-56
2021/06/07 12:37:39;;;;;;;1.75;1.20;;;22.10;68.90;;;;;;5136116;27;20047;-56
2021/06/07 12:40:33;;;;;;;0.88;0.88;;;22.10;68.90;;;;;;5136350;27;20043;-56
2021/06/07 12:43:19;;;;;;;1.35;1.10;;;22.10;68.90;;;;;;5135834;27;20540;-55
2021/06/07 12:45:54;;;;;;;1.80;1.00;;;22.10;68.90;;;;;;5135782;27;20043;-56
2021/06/07 12:48:40;;;;;;;0.80;0.80;;;22.10;68.90;;;;;;5135865;27;20051;-56
2021/06/07 12:51:21;;;;;;;1.27;1.00;;;22.10;68.80;;;;;;5135877;27;20075;-56
2021/06/07 12:53:55;;;;;;;1.15;1.05;;;22.10;68.90;;;;;;5135488;27;20043;-57
2021/06/07 12:56:23;;;;;;;1.00;0.80;;;22.10;68.90;;;;;;5135923;27;20053;-57
2021/06/07 12:58:54;;;;;;;1.67;1.00;;;22.10;68.90;;;;;;5135768;27;20497;-56